sensor_id;sensor_type;location;lat;lon;timestamp;P1;durP1;ratioP1;P2;durP2;ratioP2
22080;SDS011;11207;59.512;18.050;2023-12-20T00:02:16;10.13;;;4.23;;
22080;SDS011;11207;59.512;18.050;2023-12-20T00:04:42;10.83;;;4.37;;
22080;SDS011;11207;59.512;18.050;2023-12-20T00:07:08;10.40;;;4.20;;
22080;SDS011;11207;59.512;18.050;2023-12-20T00:09:33;8.90;;;3.67;;
22080;SDS011;11207;59.512;18.050;2023-12-20T00:11:59;9.77;;;3.87;;
22080;SDS011;11207;59.512;18.050;2023-12-20T00:14:24;5.53;;;4.23;;
22080;SDS011;11207;59.512;18.050;2023-12-20T00:16:50;11.53;;;4.30;;
22080;SDS011;11207;59.512;18.050;2023-12-20T00:19:15;10.07;;;4.30;;
22080;SDS011;11207;59.512;18.050;2023-12-20T00:21:41;12.37;;;4.10;;
22080;SDS011;11207;59.512;18.050;2023-12-20T00:24:07;10.60;;;3.97;;
22080;SDS011;11207;59.512;18.050;2023-12-20T00:26:32;9.73;;;3.87;;
22080;SDS011;11207;59.512;18.050;2023-12-20T00:28:59;10.40;;;4.20;;
22080;SDS011;11207;59.512;18.050;2023-12-20T00:31:25;10.83;;;4.50;;
22080;SDS011;11207;59.512;18.050;2023-12-20T00:33:50;9.80;;;3.60;;
22080;SDS011;11207;59.512;18.050;2023-12-20T00:36:16;15.23;;;4.43;;
22080;SDS011;11207;59.512;18.050;2023-12-20T00:38:42;8.33;;;3.87;;
22080;SDS011;11207;59.512;18.050;2023-12-20T00:41:07;8.70;;;4.20;;
22080;SDS011;11207;59.512;18.050;2023-12-20T00:43:33;11.03;;;4.60;;
22080;SDS011;11207;59.512;18.050;2023-12-20T00:45:58;10.93;;;4.00;;
22080;SDS011;11207;59.512;18.050;2023-12-20T00:48:25;11.87;;;5.17;;
22080;SDS011;11207;59.512;18.050;2023-12-20T00:50:52;12.37;;;4.10;;
22080;SDS011;11207;59.512;18.050;2023-12-20T00:53:18;12.40;;;4.00;;
22080;SDS011;11207;59.512;18.050;2023-12-20T00:55:43;10.13;;;4.03;;
22080;SDS011;11207;59.512;18.050;2023-12-20T00:58:10;8.67;;;3.80;;
22080;SDS011;11207;59.512;18.050;2023-12-20T01:00:35;11.87;;;4.57;;
22080;SDS011;11207;59.512;18.050;2023-12-20T01:03:01;9.03;;;4.30;;
22080;SDS011;11207;59.512;18.050;2023-12-20T01:05:27;11.83;;;4.13;;
22080;SDS011;11207;59.512;18.050;2023-12-20T01:07:52;14.03;;;4.67;;
22080;SDS011;11207;59.512;18.050;2023-12-20T01:10:18;6.53;;;3.83;;
22080;SDS011;11207;59.512;18.050;2023-12-20T01:12:43;11.37;;;4.60;;
22080;SDS011;11207;59.512;18.050;2023-12-20T01:15:09;8.00;;;4.80;;
22080;SDS011;11207;59.512;18.050;2023-12-20T01:17:35;10.93;;;4.40;;
22080;SDS011;11207;59.512;18.050;2023-12-20T01:20:01;11.07;;;4.53;;
22080;SDS011;11207;59.512;18.050;2023-12-20T01:22:27;14.27;;;4.63;;
22080;SDS011;11207;59.512;18.050;2023-12-20T01:24:52;11.53;;;4.00;;
22080;SDS011;11207;59.512;18.050;2023-12-20T01:27:18;9.47;;;4.33;;
22080;SDS011;11207;59.512;18.050;2023-12-20T01:29:44;22.23;;;4.40;;
22080;SDS011;11207;59.512;18.050;2023-12-20T01:32:09;9.93;;;4.60;;
22080;SDS011;11207;59.512;18.050;2023-12-20T01:34:35;9.13;;;3.83;;
22080;SDS011;11207;59.512;18.050;2023-12-20T01:37:01;12.83;;;4.47;;
22080;SDS011;11207;59.512;18.050;2023-12-20T01:39:27;12.87;;;4.37;;
22080;SDS011;11207;59.512;18.050;2023-12-20T01:41:53;8.03;;;4.10;;
22080;SDS011;11207;59.512;18.050;2023-12-20T01:44:18;15.67;;;4.90;;
22080;SDS011;11207;59.512;18.050;2023-12-20T01:46:44;16.27;;;4.93;;
22080;SDS011;11207;59.512;18.050;2023-12-20T01:49:11;12.70;;;4.43;;
22080;SDS011;11207;59.512;18.050;2023-12-20T01:51:37;17.50;;;4.97;;
22080;SDS011;11207;59.512;18.050;2023-12-20T01:54:03;10.57;;;4.17;;
22080;SDS011;11207;59.512;18.050;2023-12-20T01:56:29;11.83;;;4.87;;
22080;SDS011;11207;59.512;18.050;2023-12-20T01:58:56;14.37;;;4.47;;
22080;SDS011;11207;59.512;18.050;2023-12-20T02:01:22;7.70;;;3.90;;
22080;SDS011;11207;59.512;18.050;2023-12-20T02:03:48;8.97;;;3.97;;
22080;SDS011;11207;59.512;18.050;2023-12-20T02:06:14;8.93;;;4.30;;
22080;SDS011;11207;59.512;18.050;2023-12-20T02:08:40;9.33;;;4.50;;
22080;SDS011;11207;59.512;18.050;2023-12-20T02:11:06;14.10;;;5.20;;
22080;SDS011;11207;59.512;18.050;2023-12-20T02:13:32;8.67;;;4.17;;
22080;SDS011;11207;59.512;18.050;2023-12-20T02:15:58;16.47;;;4.47;;
22080;SDS011;11207;59.512;18.050;2023-12-20T02:18:24;11.53;;;4.30;;
22080;SDS011;11207;59.512;18.050;2023-12-20T02:20:49;15.00;;;4.43;;
22080;SDS011;11207;59.512;18.050;2023-12-20T02:23:15;15.53;;;4.13;;
22080;SDS011;11207;59.512;18.050;2023-12-20T02:25:40;13.83;;;4.77;;
22080;SDS011;11207;59.512;18.050;2023-12-20T02:28:06;10.97;;;4.47;;
22080;SDS011;11207;59.512;18.050;2023-12-20T02:30:32;10.37;;;4.23;;
22080;SDS011;11207;59.512;18.050;2023-12-20T02:32:59;14.90;;;4.77;;
22080;SDS011;11207;59.512;18.050;2023-12-20T02:35:25;10.13;;;4.80;;
22080;SDS011;11207;59.512;18.050;2023-12-20T02:37:50;16.20;;;4.63;;
22080;SDS011;11207;59.512;18.050;2023-12-20T02:40:16;10.63;;;4.60;;
22080;SDS011;11207;59.512;18.050;2023-12-20T02:42:41;9.83;;;4.10;;
22080;SDS011;11207;59.512;18.050;2023-12-20T02:45:07;11.40;;;4.70;;
22080;SDS011;11207;59.512;18.050;2023-12-20T02:47:33;13.00;;;4.53;;
22080;SDS011;11207;59.512;18.050;2023-12-20T02:49:59;12.73;;;4.53;;
22080;SDS011;11207;59.512;18.050;2023-12-20T02:52:24;13.03;;;4.63;;
22080;SDS011;11207;59.512;18.050;2023-12-20T02:54:50;15.33;;;4.97;;
22080;SDS011;11207;59.512;18.050;2023-12-20T02:57:16;9.00;;;4.63;;
22080;SDS011;11207;59.512;18.050;2023-12-20T02:59:41;10.17;;;3.90;;
22080;SDS011;11207;59.512;18.050;2023-12-20T03:02:07;13.87;;;4.90;;
22080;SDS011;11207;59.512;18.050;2023-12-20T03:04:32;10.27;;;3.97;;
22080;SDS011;11207;59.512;18.050;2023-12-20T03:06:58;13.03;;;4.47;;
22080;SDS011;11207;59.512;18.050;2023-12-20T03:09:24;13.37;;;4.53;;
22080;SDS011;11207;59.512;18.050;2023-12-20T03:11:49;14.73;;;4.80;;
22080;SDS011;11207;59.512;18.050;2023-12-20T03:14:15;7.13;;;3.77;;
22080;SDS011;11207;59.512;18.050;2023-12-20T03:16:41;13.30;;;4.50;;
22080;SDS011;11207;59.512;18.050;2023-12-20T03:19:06;7.50;;;3.90;;
22080;SDS011;11207;59.512;18.050;2023-12-20T03:21:32;8.80;;;3.67;;
22080;SDS011;11207;59.512;18.050;2023-12-20T03:23:57;9.10;;;3.83;;
22080;SDS011;11207;59.512;18.050;2023-12-20T03:26:23;11.30;;;4.63;;
22080;SDS011;11207;59.512;18.050;2023-12-20T03:28:48;9.57;;;3.97;;
22080;SDS011;11207;59.512;18.050;2023-12-20T03:31:14;16.37;;;5.17;;
22080;SDS011;11207;59.512;18.050;2023-12-20T03:33:40;17.03;;;4.67;;
22080;SDS011;11207;59.512;18.050;2023-12-20T03:36:05;10.37;;;4.40;;
22080;SDS011;11207;59.512;18.050;2023-12-20T03:38:32;19.10;;;5.10;;
22080;SDS011;11207;59.512;18.050;2023-12-20T03:40:58;17.50;;;4.70;;
22080;SDS011;11207;59.512;18.050;2023-12-20T03:43:23;12.00;;;4.53;;
22080;SDS011;11207;59.512;18.050;2023-12-20T03:45:49;15.70;;;5.30;;
22080;SDS011;11207;59.512;18.050;2023-12-20T03:48:14;9.97;;;4.50;;
22080;SDS011;11207;59.512;18.050;2023-12-20T03:50:40;15.40;;;4.40;;
22080;SDS011;11207;59.512;18.050;2023-12-20T03:53:06;9.37;;;3.97;;
22080;SDS011;11207;59.512;18.050;2023-12-20T03:55:31;11.37;;;4.07;;
22080;SDS011;11207;59.512;18.050;2023-12-20T03:57:57;10.90;;;4.00;;
22080;SDS011;11207;59.512;18.050;2023-12-20T04:00:22;13.20;;;4.43;;
22080;SDS011;11207;59.512;18.050;2023-12-20T04:02:48;10.90;;;3.77;;
22080;SDS011;11207;59.512;18.050;2023-12-20T04:05:13;12.13;;;4.27;;
22080;SDS011;11207;59.512;18.050;2023-12-20T04:07:39;15.93;;;4.27;;
22080;SDS011;11207;59.512;18.050;2023-12-20T04:10:05;11.97;;;4.00;;
22080;SDS011;11207;59.512;18.050;2023-12-20T04:12:31;12.47;;;4.10;;
22080;SDS011;11207;59.512;18.050;2023-12-20T04:14:57;13.53;;;4.60;;
22080;SDS011;11207;59.512;18.050;2023-12-20T04:17:23;14.33;;;4.90;;
22080;SDS011;11207;59.512;18.050;2023-12-20T04:19:49;10.67;;;4.00;;
22080;SDS011;11207;59.512;18.050;2023-12-20T04:22:15;7.07;;;3.80;;
22080;SDS011;11207;59.512;18.050;2023-12-20T04:24:41;8.80;;;4.00;;
22080;SDS011;11207;59.512;18.050;2023-12-20T04:27:07;13.50;;;4.10;;
22080;SDS011;11207;59.512;18.050;2023-12-20T04:29:33;8.93;;;4.27;;
22080;SDS011;11207;59.512;18.050;2023-12-20T04:31:59;9.63;;;4.07;;
22080;SDS011;11207;59.512;18.050;2023-12-20T04:34:25;14.80;;;4.40;;
22080;SDS011;11207;59.512;18.050;2023-12-20T04:36:51;9.20;;;3.97;;
22080;SDS011;11207;59.512;18.050;2023-12-20T04:39:17;11.40;;;4.83;;
22080;SDS011;11207;59.512;18.050;2023-12-20T04:41:42;11.47;;;4.03;;
22080;SDS011;11207;59.512;18.050;2023-12-20T04:44:08;10.00;;;4.20;;
22080;SDS011;11207;59.512;18.050;2023-12-20T04:46:33;13.43;;;4.80;;
22080;SDS011;11207;59.512;18.050;2023-12-20T04:48:59;17.40;;;4.43;;
22080;SDS011;11207;59.512;18.050;2023-12-20T04:51:25;14.73;;;4.73;;
22080;SDS011;11207;59.512;18.050;2023-12-20T04:53:50;15.57;;;4.67;;
22080;SDS011;11207;59.512;18.050;2023-12-20T04:56:16;11.63;;;3.93;;
22080;SDS011;11207;59.512;18.050;2023-12-20T04:58:42;15.63;;;4.10;;
22080;SDS011;11207;59.512;18.050;2023-12-20T05:01:08;15.57;;;5.70;;
22080;SDS011;11207;59.512;18.050;2023-12-20T05:03:34;28.50;;;8.40;;
22080;SDS011;11207;59.512;18.050;2023-12-20T05:06:00;13.93;;;5.03;;
22080;SDS011;11207;59.512;18.050;2023-12-20T05:08:25;10.33;;;4.50;;
22080;SDS011;11207;59.512;18.050;2023-12-20T05:10:52;14.27;;;4.60;;
22080;SDS011;11207;59.512;18.050;2023-12-20T05:13:19;11.37;;;4.93;;
22080;SDS011;11207;59.512;18.050;2023-12-20T05:15:45;9.23;;;4.27;;
22080;SDS011;11207;59.512;18.050;2023-12-20T05:18:10;10.07;;;4.17;;
22080;SDS011;11207;59.512;18.050;2023-12-20T05:20:36;12.53;;;4.07;;
22080;SDS011;11207;59.512;18.050;2023-12-20T05:23:02;5.37;;;4.07;;
22080;SDS011;11207;59.512;18.050;2023-12-20T05:25:28;11.50;;;4.47;;
22080;SDS011;11207;59.512;18.050;2023-12-20T05:27:54;11.80;;;3.83;;
22080;SDS011;11207;59.512;18.050;2023-12-20T05:30:19;15.80;;;4.80;;
22080;SDS011;11207;59.512;18.050;2023-12-20T05:32:45;15.70;;;4.60;;
22080;SDS011;11207;59.512;18.050;2023-12-20T05:35:10;6.70;;;3.80;;
22080;SDS011;11207;59.512;18.050;2023-12-20T05:37:36;7.97;;;3.93;;
22080;SDS011;11207;59.512;18.050;2023-12-20T05:40:02;7.10;;;3.57;;
22080;SDS011;11207;59.512;18.050;2023-12-20T05:42:28;12.30;;;4.23;;
22080;SDS011;11207;59.512;18.050;2023-12-20T05:44:54;7.57;;;4.23;;
22080;SDS011;11207;59.512;18.050;2023-12-20T05:47:20;9.10;;;4.47;;
22080;SDS011;11207;59.512;18.050;2023-12-20T05:49:45;7.10;;;4.17;;
22080;SDS011;11207;59.512;18.050;2023-12-20T05:52:11;6.57;;;4.03;;
22080;SDS011;11207;59.512;18.050;2023-12-20T05:54:36;12.40;;;4.57;;
22080;SDS011;11207;59.512;18.050;2023-12-20T05:57:02;7.53;;;3.90;;
22080;SDS011;11207;59.512;18.050;2023-12-20T05:59:28;9.03;;;4.27;;
22080;SDS011;11207;59.512;18.050;2023-12-20T06:01:53;6.50;;;4.00;;
22080;SDS011;11207;59.512;18.050;2023-12-20T06:04:19;16.57;;;4.77;;
22080;SDS011;11207;59.512;18.050;2023-12-20T06:06:44;8.20;;;4.67;;
22080;SDS011;11207;59.512;18.050;2023-12-20T06:09:10;9.80;;;4.23;;
22080;SDS011;11207;59.512;18.050;2023-12-20T06:11:36;6.73;;;3.97;;
22080;SDS011;11207;59.512;18.050;2023-12-20T06:14:02;6.20;;;4.50;;
22080;SDS011;11207;59.512;18.050;2023-12-20T06:16:28;10.20;;;4.50;;
22080;SDS011;11207;59.512;18.050;2023-12-20T06:18:54;6.93;;;4.30;;
22080;SDS011;11207;59.512;18.050;2023-12-20T06:21:19;7.97;;;4.57;;
22080;SDS011;11207;59.512;18.050;2023-12-20T06:23:45;6.67;;;4.33;;
22080;SDS011;11207;59.512;18.050;2023-12-20T06:26:10;8.50;;;4.13;;
22080;SDS011;11207;59.512;18.050;2023-12-20T06:28:36;7.73;;;3.90;;
22080;SDS011;11207;59.512;18.050;2023-12-20T06:31:02;6.63;;;4.07;;
22080;SDS011;11207;59.512;18.050;2023-12-20T06:33:28;9.83;;;4.50;;
22080;SDS011;11207;59.512;18.050;2023-12-20T06:35:55;9.97;;;5.20;;
22080;SDS011;11207;59.512;18.050;2023-12-20T06:38:21;18.10;;;8.83;;
22080;SDS011;11207;59.512;18.050;2023-12-20T06:40:47;11.67;;;6.40;;
22080;SDS011;11207;59.512;18.050;2023-12-20T06:43:12;9.50;;;6.50;;
22080;SDS011;11207;59.512;18.050;2023-12-20T06:45:38;10.77;;;5.63;;
22080;SDS011;11207;59.512;18.050;2023-12-20T06:48:04;13.73;;;8.53;;
22080;SDS011;11207;59.512;18.050;2023-12-20T06:50:30;21.43;;;10.93;;
22080;SDS011;11207;59.512;18.050;2023-12-20T06:52:56;19.67;;;11.70;;
22080;SDS011;11207;59.512;18.050;2023-12-20T06:55:21;23.67;;;10.93;;
22080;SDS011;11207;59.512;18.050;2023-12-20T06:57:48;18.10;;;10.23;;
22080;SDS011;11207;59.512;18.050;2023-12-20T07:00:14;16.67;;;10.17;;
22080;SDS011;11207;59.512;18.050;2023-12-20T07:02:40;14.17;;;8.37;;
22080;SDS011;11207;59.512;18.050;2023-12-20T07:05:05;12.30;;;6.70;;
22080;SDS011;11207;59.512;18.050;2023-12-20T07:07:31;13.97;;;8.20;;
22080;SDS011;11207;59.512;18.050;2023-12-20T07:09:57;14.40;;;8.40;;
22080;SDS011;11207;59.512;18.050;2023-12-20T07:12:22;12.97;;;7.30;;
22080;SDS011;11207;59.512;18.050;2023-12-20T07:14:48;11.13;;;6.23;;
22080;SDS011;11207;59.512;18.050;2023-12-20T07:17:14;12.60;;;6.50;;
22080;SDS011;11207;59.512;18.050;2023-12-20T07:19:40;13.23;;;6.23;;
22080;SDS011;11207;59.512;18.050;2023-12-20T07:22:07;11.27;;;5.80;;
22080;SDS011;11207;59.512;18.050;2023-12-20T07:24:33;10.83;;;6.80;;
22080;SDS011;11207;59.512;18.050;2023-12-20T07:26:59;7.13;;;6.00;;
22080;SDS011;11207;59.512;18.050;2023-12-20T07:29:25;8.17;;;6.07;;
22080;SDS011;11207;59.512;18.050;2023-12-20T07:31:52;8.93;;;6.17;;
22080;SDS011;11207;59.512;18.050;2023-12-20T07:34:18;9.53;;;6.50;;
22080;SDS011;11207;59.512;18.050;2023-12-20T07:36:45;8.17;;;6.23;;
22080;SDS011;11207;59.512;18.050;2023-12-20T07:39:10;10.83;;;6.60;;
22080;SDS011;11207;59.512;18.050;2023-12-20T07:41:36;10.67;;;6.73;;
22080;SDS011;11207;59.512;18.050;2023-12-20T07:44:02;7.90;;;6.00;;
22080;SDS011;11207;59.512;18.050;2023-12-20T07:46:28;9.73;;;7.13;;
22080;SDS011;11207;59.512;18.050;2023-12-20T07:48:54;13.13;;;6.70;;
22080;SDS011;11207;59.512;18.050;2023-12-20T07:51:19;10.10;;;6.37;;
22080;SDS011;11207;59.512;18.050;2023-12-20T07:53:46;10.00;;;6.33;;
22080;SDS011;11207;59.512;18.050;2023-12-20T07:56:18;9.93;;;6.37;;
22080;SDS011;11207;59.512;18.050;2023-12-20T07:58:45;8.30;;;6.60;;
22080;SDS011;11207;59.512;18.050;2023-12-20T08:01:11;8.30;;;6.30;;
22080;SDS011;11207;59.512;18.050;2023-12-20T08:03:37;12.83;;;7.03;;
22080;SDS011;11207;59.512;18.050;2023-12-20T08:06:03;13.20;;;7.13;;
22080;SDS011;11207;59.512;18.050;2023-12-20T08:08:29;11.73;;;6.83;;
22080;SDS011;11207;59.512;18.050;2023-12-20T08:10:55;10.30;;;7.00;;
22080;SDS011;11207;59.512;18.050;2023-12-20T08:13:24;13.43;;;7.47;;
22080;SDS011;11207;59.512;18.050;2023-12-20T08:15:51;11.47;;;7.47;;
22080;SDS011;11207;59.512;18.050;2023-12-20T08:18:17;9.97;;;7.03;;
22080;SDS011;11207;59.512;18.050;2023-12-20T08:20:42;10.07;;;6.87;;
22080;SDS011;11207;59.512;18.050;2023-12-20T08:23:08;13.27;;;7.27;;
22080;SDS011;11207;59.512;18.050;2023-12-20T08:25:34;15.13;;;6.83;;
22080;SDS011;11207;59.512;18.050;2023-12-20T08:28:00;12.07;;;7.43;;
22080;SDS011;11207;59.512;18.050;2023-12-20T08:30:27;13.17;;;7.40;;
22080;SDS011;11207;59.512;18.050;2023-12-20T08:32:54;13.87;;;7.33;;
22080;SDS011;11207;59.512;18.050;2023-12-20T08:35:20;11.53;;;7.57;;
22080;SDS011;11207;59.512;18.050;2023-12-20T08:37:45;9.67;;;7.27;;
22080;SDS011;11207;59.512;18.050;2023-12-20T08:40:11;13.90;;;7.40;;
22080;SDS011;11207;59.512;18.050;2023-12-20T08:42:37;14.07;;;7.63;;
22080;SDS011;11207;59.512;18.050;2023-12-20T08:45:03;11.33;;;7.10;;
22080;SDS011;11207;59.512;18.050;2023-12-20T08:47:29;12.07;;;7.30;;
22080;SDS011;11207;59.512;18.050;2023-12-20T08:49:55;13.63;;;7.73;;
22080;SDS011;11207;59.512;18.050;2023-12-20T08:52:22;14.87;;;7.80;;
22080;SDS011;11207;59.512;18.050;2023-12-20T08:54:48;10.70;;;7.00;;
22080;SDS011;11207;59.512;18.050;2023-12-20T08:57:19;9.43;;;7.07;;
22080;SDS011;11207;59.512;18.050;2023-12-20T08:59:46;12.63;;;7.43;;
22080;SDS011;11207;59.512;18.050;2023-12-20T09:02:12;11.10;;;7.33;;
22080;SDS011;11207;59.512;18.050;2023-12-20T09:04:39;17.70;;;9.10;;
22080;SDS011;11207;59.512;18.050;2023-12-20T09:07:05;15.23;;;8.03;;
22080;SDS011;11207;59.512;18.050;2023-12-20T09:09:30;15.43;;;8.10;;
22080;SDS011;11207;59.512;18.050;2023-12-20T09:11:57;16.47;;;8.27;;
22080;SDS011;11207;59.512;18.050;2023-12-20T09:14:23;15.10;;;7.80;;
22080;SDS011;11207;59.512;18.050;2023-12-20T09:16:48;14.10;;;8.27;;
22080;SDS011;11207;59.512;18.050;2023-12-20T09:19:16;18.50;;;8.30;;
22080;SDS011;11207;59.512;18.050;2023-12-20T09:21:42;17.03;;;8.63;;
22080;SDS011;11207;59.512;18.050;2023-12-20T09:24:08;17.40;;;8.77;;
22080;SDS011;11207;59.512;18.050;2023-12-20T09:26:34;14.87;;;8.83;;
22080;SDS011;11207;59.512;18.050;2023-12-20T09:28:59;20.70;;;9.97;;
22080;SDS011;11207;59.512;18.050;2023-12-20T09:31:25;17.30;;;8.60;;
22080;SDS011;11207;59.512;18.050;2023-12-20T09:33:51;16.70;;;9.30;;
22080;SDS011;11207;59.512;18.050;2023-12-20T09:36:16;17.20;;;8.57;;
22080;SDS011;11207;59.512;18.050;2023-12-20T09:38:42;17.10;;;9.93;;
22080;SDS011;11207;59.512;18.050;2023-12-20T09:41:08;21.53;;;10.17;;
22080;SDS011;11207;59.512;18.050;2023-12-20T09:43:35;25.93;;;10.50;;
22080;SDS011;11207;59.512;18.050;2023-12-20T09:46:02;25.20;;;10.37;;
22080;SDS011;11207;59.512;18.050;2023-12-20T09:48:31;16.97;;;9.37;;
22080;SDS011;11207;59.512;18.050;2023-12-20T09:50:57;14.47;;;9.10;;
22080;SDS011;11207;59.512;18.050;2023-12-20T09:53:23;21.67;;;9.97;;
22080;SDS011;11207;59.512;18.050;2023-12-20T09:55:55;16.50;;;9.00;;
22080;SDS011;11207;59.512;18.050;2023-12-20T09:58:25;28.80;;;11.43;;
22080;SDS011;11207;59.512;18.050;2023-12-20T10:00:50;22.90;;;10.77;;
22080;SDS011;11207;59.512;18.050;2023-12-20T10:03:17;25.47;;;11.80;;
22080;SDS011;11207;59.512;18.050;2023-12-20T10:05:49;21.40;;;10.70;;
22080;SDS011;11207;59.512;18.050;2023-12-20T10:08:20;18.23;;;10.13;;
22080;SDS011;11207;59.512;18.050;2023-12-20T10:10:47;27.47;;;11.67;;
22080;SDS011;11207;59.512;18.050;2023-12-20T10:13:12;27.83;;;11.60;;
22080;SDS011;11207;59.512;18.050;2023-12-20T10:15:38;30.60;;;12.80;;
22080;SDS011;11207;59.512;18.050;2023-12-20T10:18:05;24.73;;;11.37;;
22080;SDS011;11207;59.512;18.050;2023-12-20T10:20:31;21.93;;;10.70;;
22080;SDS011;11207;59.512;18.050;2023-12-20T10:22:58;19.03;;;9.70;;
22080;SDS011;11207;59.512;18.050;2023-12-20T10:25:24;20.20;;;10.67;;
22080;SDS011;11207;59.512;18.050;2023-12-20T10:27:57;27.00;;;11.67;;
22080;SDS011;11207;59.512;18.050;2023-12-20T10:30:48;17.27;;;9.47;;
22080;SDS011;11207;59.512;18.050;2023-12-20T10:33:15;22.10;;;11.67;;
22080;SDS011;11207;59.512;18.050;2023-12-20T10:35:52;22.37;;;10.57;;
22080;SDS011;11207;59.512;18.050;2023-12-20T10:38:18;21.90;;;10.43;;
22080;SDS011;11207;59.512;18.050;2023-12-20T10:40:47;23.07;;;10.93;;
22080;SDS011;11207;59.512;18.050;2023-12-20T10:43:14;22.03;;;9.47;;
22080;SDS011;11207;59.512;18.050;2023-12-20T10:45:41;17.50;;;8.80;;
22080;SDS011;11207;59.512;18.050;2023-12-20T10:48:09;18.57;;;10.00;;
22080;SDS011;11207;59.512;18.050;2023-12-20T10:50:36;25.97;;;11.37;;
22080;SDS011;11207;59.512;18.050;2023-12-20T10:53:06;20.40;;;10.23;;
22080;SDS011;11207;59.512;18.050;2023-12-20T10:55:32;23.90;;;11.00;;
22080;SDS011;11207;59.512;18.050;2023-12-20T10:58:03;23.00;;;10.83;;
22080;SDS011;11207;59.512;18.050;2023-12-20T11:00:33;23.47;;;10.17;;
22080;SDS011;11207;59.512;18.050;2023-12-20T11:03:08;22.07;;;9.60;;
22080;SDS011;11207;59.512;18.050;2023-12-20T11:10:51;20.93;;;10.73;;
22080;SDS011;11207;59.512;18.050;2023-12-20T11:13:32;16.27;;;9.27;;
22080;SDS011;11207;59.512;18.050;2023-12-20T11:16:03;25.47;;;10.40;;
22080;SDS011;11207;59.512;18.050;2023-12-20T11:18:29;22.00;;;9.70;;
22080;SDS011;11207;59.512;18.050;2023-12-20T11:20:55;19.70;;;9.30;;
22080;SDS011;11207;59.512;18.050;2023-12-20T11:23:31;26.63;;;10.97;;
22080;SDS011;11207;59.512;18.050;2023-12-20T11:25:59;23.93;;;10.60;;
22080;SDS011;11207;59.512;18.050;2023-12-20T11:28:26;20.77;;;9.40;;
22080;SDS011;11207;59.512;18.050;2023-12-20T11:30:56;23.70;;;9.80;;
22080;SDS011;11207;59.512;18.050;2023-12-20T11:33:37;20.03;;;9.03;;
22080;SDS011;11207;59.512;18.050;2023-12-20T11:36:06;16.77;;;9.23;;
22080;SDS011;11207;59.512;18.050;2023-12-20T11:38:38;14.47;;;8.53;;
22080;SDS011;11207;59.512;18.050;2023-12-20T11:41:14;17.07;;;8.20;;
22080;SDS011;11207;59.512;18.050;2023-12-20T11:43:41;17.83;;;8.77;;
22080;SDS011;11207;59.512;18.050;2023-12-20T11:46:07;15.67;;;7.87;;
22080;SDS011;11207;59.512;18.050;2023-12-20T11:48:34;15.53;;;7.70;;
22080;SDS011;11207;59.512;18.050;2023-12-20T11:51:08;17.43;;;7.70;;
22080;SDS011;11207;59.512;18.050;2023-12-20T11:53:35;14.60;;;6.97;;
22080;SDS011;11207;59.512;18.050;2023-12-20T11:56:02;11.20;;;6.87;;
22080;SDS011;11207;59.512;18.050;2023-12-20T11:58:28;11.80;;;6.97;;
22080;SDS011;11207;59.512;18.050;2023-12-20T12:00:54;10.67;;;5.77;;
22080;SDS011;11207;59.512;18.050;2023-12-20T12:03:20;10.23;;;6.13;;
22080;SDS011;11207;59.512;18.050;2023-12-20T12:05:49;14.80;;;7.23;;
22080;SDS011;11207;59.512;18.050;2023-12-20T12:08:15;11.77;;;6.43;;
22080;SDS011;11207;59.512;18.050;2023-12-20T12:10:42;9.87;;;6.27;;
22080;SDS011;11207;59.512;18.050;2023-12-20T12:13:08;10.17;;;6.03;;
22080;SDS011;11207;59.512;18.050;2023-12-20T12:15:35;8.90;;;5.90;;
22080;SDS011;11207;59.512;18.050;2023-12-20T12:18:01;7.70;;;5.30;;
22080;SDS011;11207;59.512;18.050;2023-12-20T12:20:27;7.63;;;5.40;;
22080;SDS011;11207;59.512;18.050;2023-12-20T12:25:29;5.23;;;4.40;;
22080;SDS011;11207;59.512;18.050;2023-12-20T12:27:56;10.43;;;5.17;;
22080;SDS011;11207;59.512;18.050;2023-12-20T12:30:23;10.80;;;5.00;;
22080;SDS011;11207;59.512;18.050;2023-12-20T12:32:50;7.87;;;5.10;;
22080;SDS011;11207;59.512;18.050;2023-12-20T12:35:16;5.57;;;4.83;;
22080;SDS011;11207;59.512;18.050;2023-12-20T12:37:42;9.13;;;5.17;;
22080;SDS011;11207;59.512;18.050;2023-12-20T12:40:12;7.20;;;4.87;;
22080;SDS011;11207;59.512;18.050;2023-12-20T12:42:39;6.43;;;5.40;;
22080;SDS011;11207;59.512;18.050;2023-12-20T12:45:07;8.87;;;5.13;;
22080;SDS011;11207;59.512;18.050;2023-12-20T12:47:36;11.17;;;5.40;;
22080;SDS011;11207;59.512;18.050;2023-12-20T12:50:02;7.63;;;5.30;;
22080;SDS011;11207;59.512;18.050;2023-12-20T12:52:28;7.20;;;5.47;;
22080;SDS011;11207;59.512;18.050;2023-12-20T12:54:53;10.33;;;6.23;;
22080;SDS011;11207;59.512;18.050;2023-12-20T12:57:19;7.40;;;5.47;;
22080;SDS011;11207;59.512;18.050;2023-12-20T12:59:45;7.13;;;4.93;;
22080;SDS011;11207;59.512;18.050;2023-12-20T13:02:14;7.33;;;5.37;;
22080;SDS011;11207;59.512;18.050;2023-12-20T13:04:43;8.40;;;5.30;;
22080;SDS011;11207;59.512;18.050;2023-12-20T13:07:09;7.60;;;5.40;;
22080;SDS011;11207;59.512;18.050;2023-12-20T13:09:38;6.20;;;4.97;;
22080;SDS011;11207;59.512;18.050;2023-12-20T13:12:04;7.17;;;5.60;;
22080;SDS011;11207;59.512;18.050;2023-12-20T13:14:34;5.17;;;4.40;;
22080;SDS011;11207;59.512;18.050;2023-12-20T13:17:02;4.97;;;4.47;;
22080;SDS011;11207;59.512;18.050;2023-12-20T13:19:29;4.33;;;3.93;;
22080;SDS011;11207;59.512;18.050;2023-12-20T13:21:55;5.87;;;4.40;;
22080;SDS011;11207;59.512;18.050;2023-12-20T13:24:21;4.50;;;4.10;;
22080;SDS011;11207;59.512;18.050;2023-12-20T13:26:46;5.37;;;4.27;;
22080;SDS011;11207;59.512;18.050;2023-12-20T13:29:12;3.90;;;3.60;;
22080;SDS011;11207;59.512;18.050;2023-12-20T13:31:38;4.20;;;3.80;;
22080;SDS011;11207;59.512;18.050;2023-12-20T13:34:04;3.40;;;3.10;;
22080;SDS011;11207;59.512;18.050;2023-12-20T13:36:31;4.03;;;3.60;;
22080;SDS011;11207;59.512;18.050;2023-12-20T13:39:01;4.10;;;3.80;;
22080;SDS011;11207;59.512;18.050;2023-12-20T13:41:29;3.70;;;3.40;;
22080;SDS011;11207;59.512;18.050;2023-12-20T13:43:55;3.80;;;3.50;;
22080;SDS011;11207;59.512;18.050;2023-12-20T13:46:20;4.40;;;3.43;;
22080;SDS011;11207;59.512;18.050;2023-12-20T13:48:46;3.97;;;3.30;;
22080;SDS011;11207;59.512;18.050;2023-12-20T13:51:12;3.80;;;3.50;;
22080;SDS011;11207;59.512;18.050;2023-12-20T13:53:37;4.07;;;3.73;;
22080;SDS011;11207;59.512;18.050;2023-12-20T13:56:03;4.47;;;4.07;;
22080;SDS011;11207;59.512;18.050;2023-12-20T13:58:29;3.60;;;3.30;;
22080;SDS011;11207;59.512;18.050;2023-12-20T14:00:55;4.17;;;3.77;;
22080;SDS011;11207;59.512;18.050;2023-12-20T14:03:21;4.20;;;3.80;;
22080;SDS011;11207;59.512;18.050;2023-12-20T14:05:47;3.97;;;3.67;;
22080;SDS011;11207;59.512;18.050;2023-12-20T14:08:12;4.10;;;3.70;;
22080;SDS011;11207;59.512;18.050;2023-12-20T14:10:38;4.27;;;3.87;;
22080;SDS011;11207;59.512;18.050;2023-12-20T14:13:04;4.57;;;4.17;;
22080;SDS011;11207;59.512;18.050;2023-12-20T14:15:30;5.07;;;4.53;;
22080;SDS011;11207;59.512;18.050;2023-12-20T14:18:02;4.77;;;4.37;;
22080;SDS011;11207;59.512;18.050;2023-12-20T14:20:34;4.60;;;4.20;;
22080;SDS011;11207;59.512;18.050;2023-12-20T14:23:03;4.87;;;4.37;;
22080;SDS011;11207;59.512;18.050;2023-12-20T14:25:29;5.60;;;5.00;;
22080;SDS011;11207;59.512;18.050;2023-12-20T14:27:55;7.40;;;5.53;;
22080;SDS011;11207;59.512;18.050;2023-12-20T14:30:21;5.23;;;4.80;;